Time;durP1;ratioP1;P1;durP2;ratioP2;P2;SDS_P1;SDS_P2;PMS_P1;PMS_P2;Temp;Humidity;BMP_temperature;BMP_pressure;BME280_temperature;BME280_humidity;BME280_pressure;Samples;Min_cycle;Max_cycle;Signal;HPM_P1;HPM_P2
2021/03/26 00:01:38;;;;;;;;;;;7.20;99.90;;;;;;13160656;22;19918;-87
2021/03/26 00:12:14;;;;;;;;;;;5.80;99.90;;;;;;13186487;22;19926;-85
2021/03/26 00:17:15;;;;;;;;;;;5.80;99.90;;;;;;13157641;22;19973;-85
2021/03/26 00:22:17;;;;;;;;;;;5.80;99.90;;;;;;13185456;22;19924;-85
2021/03/26 00:27:18;;;;;;;;;;;8.10;99.90;;;;;;13132665;22;19922;-85
2021/03/26 00:32:19;;;;;;;;;;;5.70;99.90;;;;;;13158328;22;19941;-85
2021/03/26 00:37:21;;;;;;;;;;;6.70;99.90;;;;;;13185975;22;19971;-85
2021/03/26 00:42:22;;;;;;;;;;;5.50;99.90;;;;;;13157343;22;20398;-85
2021/03/26 00:47:24;;;;;;;;;;;5.50;99.90;;;;;;13185879;22;20001;-85
2021/03/26 00:52:25;;;;;;;;;;;5.60;99.90;;;;;;13157454;22;19918;-85
2021/03/26 00:57:26;;;;;;;;;;;6.20;99.90;;;;;;13157618;22;19918;-85
2021/03/26 01:02:28;;;;;;;;;;;5.40;99.90;;;;;;13157838;22;19990;-85
2021/03/26 01:07:29;;;;;;;;;;;5.30;99.90;;;;;;13184114;22;19918;-85
2021/03/26 01:12:31;;;;;;;;;;;5.50;99.90;;;;;;13155719;22;20315;-85
2021/03/26 01:17:32;;;;;;;;;;;7.40;99.90;;;;;;13157287;22;19993;-85
2021/03/26 01:22:34;;;;;;;;;;;5.20;99.90;;;;;;13156778;22;19922;-85
2021/03/26 01:27:35;;;;;;;;;;;7.50;99.90;;;;;;13184252;22;20317;-85
2021/03/26 01:32:36;;;;;;;;;;;5.00;99.90;;;;;;13184275;22;19924;-85
2021/03/26 01:37:39;;;;;;;;;;;5.00;99.90;;;;;;13186074;22;19918;-85
2021/03/26 01:42:40;;;;;;;;;;;4.90;99.90;;;;;;13157030;22;19922;-85
2021/03/26 01:47:42;;;;;;;;;;;5.00;99.90;;;;;;13184337;22;19926;-85
2021/03/26 01:52:44;;;;;;;;;;;7.10;99.90;;;;;;13155258;22;20328;-85
2021/03/26 01:57:46;;;;;;;;;;;7.60;99.90;;;;;;13184234;22;19990;-85
2021/03/26 02:03:03;;;;;;;;;;;5.20;99.90;;;;;;13184057;22;19918;-85
2021/03/26 02:08:04;;;;;;;;;;;5.30;99.90;;;;;;13156532;22;19919;-85
2021/03/26 02:13:07;;;;;;;;;;;5.30;99.90;;;;;;13130821;22;19993;-85
2021/03/26 02:18:08;;;;;;;;;;;6.00;99.90;;;;;;13156162;22;19971;-85
2021/03/26 02:23:14;;;;;;;;;;;5.30;99.90;;;;;;13156065;22;20335;-85
2021/03/26 02:28:16;;;;;;;;;;;5.10;99.90;;;;;;13156364;22;19918;-85
2021/03/26 02:33:25;;;;;;;;;;;7.80;99.90;;;;;;13158190;22;19933;-85
2021/03/26 02:38:28;;;;;;;;;;;7.10;99.90;;;;;;13182920;22;19918;-85
2021/03/26 02:43:38;;;;;;;;;;;5.10;99.90;;;;;;13156240;22;19949;-85
2021/03/26 02:48:47;;;;;;;;;;;4.90;99.90;;;;;;13156036;22;19997;-85
2021/03/26 02:54:05;;;;;;;;;;;4.70;99.90;;;;;;13183537;22;19957;-85
2021/03/26 02:59:08;;;;;;;;;;;4.90;99.90;;;;;;13182369;22;20402;-85
2021/03/26 03:04:18;;;;;;;;;;;5.10;99.90;;;;;;13153398;22;19929;-85
2021/03/26 03:09:22;;;;;;;;;;;5.20;99.90;;;;;;13182885;22;19933;-85
2021/03/26 03:14:26;;;;;;;;;;;8.20;99.90;;;;;;13153998;22;19926;-85
2021/03/26 03:19:34;;;;;;;;;;;5.40;99.90;;;;;;13181501;22;19934;-85
2021/03/26 03:24:46;;;;;;;;;;;5.60;99.90;;;;;;13182301;22;19919;-85
2021/03/26 03:29:53;;;;;;;;;;;5.70;99.90;;;;;;13181975;22;19919;-85
2021/03/26 03:34:59;;;;;;;;;;;5.60;99.90;;;;;;13155001;22;19919;-85
2021/03/26 03:40:12;;;;;;;;;;;5.70;99.90;;;;;;13155317;22;19921;-85
2021/03/26 03:45:23;;;;;;;;;;;5.70;99.90;;;;;;13155305;22;19994;-85
2021/03/26 03:50:43;;;;;;;;;;;5.70;99.90;;;;;;13153731;22;20001;-85
2021/03/26 03:55:48;;;;;;;;;;;5.80;99.90;;;;;;13156671;22;19933;-85
2021/03/26 04:01:08;;;;;;;;;;;5.80;99.90;;;;;;13187822;22;19926;-85
2021/03/26 04:06:15;;;;;;;;;;;5.90;99.90;;;;;;13158025;22;19929;-85
2021/03/26 04:11:28;;;;;;;;;;;6.00;99.90;;;;;;13185375;22;19985;-85
2021/03/26 04:16:29;;;;;;;;;;;6.20;99.90;;;;;;13184403;22;20005;-85
2021/03/26 04:21:34;;;;;;;;;;;6.30;99.90;;;;;;13158308;22;19971;-85
2021/03/26 04:26:41;;;;;;;;;;;6.40;99.90;;;;;;13184808;22;19918;-85
2021/03/26 04:31:48;;;;;;;;;;;8.20;99.90;;;;;;13157571;22;20327;-85
2021/03/26 04:36:54;;;;;;;;;;;6.40;99.90;;;;;;13185980;22;19971;-85
2021/03/26 04:41:58;;;;;;;;;;;7.00;99.90;;;;;;13158698;22;19942;-85
2021/03/26 04:47:14;;;;;;;;;;;6.50;99.90;;;;;;13157301;22;19990;-85
2021/03/26 04:52:15;;;;;;;;;;;6.70;99.90;;;;;;13184731;22;19919;-85
2021/03/26 04:57:21;;;;;;;;;;;6.80;99.90;;;;;;13185567;22;19926;-85
2021/03/26 05:02:23;;;;;;;;;;;6.70;99.90;;;;;;13186229;22;19968;-85
2021/03/26 05:07:32;;;;;;;;;;;6.80;99.90;;;;;;13157620;22;19918;-85
2021/03/26 05:12:35;;;;;;;;;;;6.80;99.90;;;;;;13184134;22;20389;-85
2021/03/26 05:17:43;;;;;;;;;;;6.80;99.90;;;;;;13157648;22;19941;-85
2021/03/26 05:22:53;;;;;;;;;;;6.90;99.90;;;;;;13156613;22;19940;-85
2021/03/26 05:27:55;;;;;;;;;;;6.80;99.90;;;;;;13184871;22;20299;-85
2021/03/26 05:33:00;;;;;;;;;;;7.70;99.90;;;;;;13183698;22;19940;-85
2021/03/26 05:38:03;;;;;;;;;;;8.90;99.90;;;;;;13184241;22;19922;-85
2021/03/26 05:43:13;;;;;;;;;;;7.10;99.90;;;;;;13184136;22;19990;-85
2021/03/26 05:48:38;;;;;;;;;;;7.10;99.90;;;;;;13183998;22;20396;-86
2021/03/26 05:53:58;;;;;;;;;;;7.10;99.90;;;;;;13156005;22;19922;-85
2021/03/26 05:59:19;;;;;;;;;;;7.10;99.90;;;;;;13156889;22;19957;-86
2021/03/26 06:04:39;;;;;;;;;;;7.20;99.90;;;;;;13181834;22;19994;-87
2021/03/26 06:09:56;;;;;;;;;;;7.40;99.90;;;;;;13182751;22;19992;-86
2021/03/26 06:15:13;;;;;;;;;;;7.30;99.90;;;;;;13181771;22;20316;-86
2021/03/26 06:20:25;;;;;;;;;;;7.40;99.90;;;;;;13182384;22;19972;-86
2021/03/26 06:25:44;;;;;;;;;;;7.40;99.90;;;;;;13180285;22;19997;-86
2021/03/26 06:30:51;;;;;;;;;;;7.60;99.90;;;;;;13180990;22;19918;-86
2021/03/26 06:35:55;;;;;;;;;;;7.60;99.90;;;;;;13181529;22;19922;-86
2021/03/26 06:41:15;;;;;;;;;;;7.70;99.90;;;;;;13153228;22;19985;-86
2021/03/26 06:46:16;;;;;;;;;;;7.80;99.90;;;;;;13152194;22;20343;-86
2021/03/26 06:51:18;;;;;;;;;;;7.90;99.90;;;;;;13179690;22;19945;-87
2021/03/26 06:56:22;;;;;;;;;;;8.70;99.90;;;;;;13180600;22;19960;-87
2021/03/26 07:01:31;;;;;;;;;;;8.00;99.90;;;;;;13180494;22;19925;-86
2021/03/26 07:07:11;;;;;;;;;;;9.00;99.90;;;;;;13180115;22;20239;-86
2021/03/26 07:12:31;;;;;;;;;;;8.00;99.90;;;;;;13152043;22;19919;-87
2021/03/26 07:17:51;;;;;;;;;;;8.00;99.90;;;;;;13152783;22;19957;-86
2021/03/26 07:23:07;;;;;;;;;;;8.10;99.90;;;;;;13152322;22;19967;-86
2021/03/26 07:28:17;;;;;;;;;;;8.20;99.90;;;;;;13152801;22;20232;-86
2021/03/26 07:33:18;;;;;;;;;;;8.40;99.90;;;;;;13156630;22;19918;-87
2021/03/26 07:38:24;;;;;;;;;;;8.70;99.90;;;;;;13156182;22;20319;-86
2021/03/26 07:43:44;;;;;;;;;;;8.70;99.90;;;;;;13183835;22;20377;-86
2021/03/26 07:49:04;;;;;;;;;;;8.80;99.90;;;;;;13184438;22;19922;-86
2021/03/26 07:54:12;;;;;;;;;;;9.60;99.90;;;;;;13156079;22;20327;-87
2021/03/26 07:59:23;;;;;;;;;;;10.70;99.90;;;;;;13183997;22;19993;-86
2021/03/26 08:04:31;;;;;;;;;;;11.60;99.90;;;;;;13155512;22;20320;-86
2021/03/26 08:09:51;;;;;;;;;;;11.50;99.90;;;;;;13183650;22;19945;-86
2021/03/26 08:14:52;;;;;;;;;;;11.60;99.90;;;;;;13184239;22;19997;-86
2021/03/26 08:20:07;;;;;;;;;;;12.20;99.90;;;;;;13160443;22;19949;-86
2021/03/26 08:25:27;;;;;;;;;;;13.00;99.90;;;;;;13156356;22;19971;-87
2021/03/26 08:30:47;;;;;;;;;;;12.70;99.90;;;;;;13183485;22;19949;-86
2021/03/26 08:35:48;;;;;;;;;;;13.40;99.90;;;;;;13182329;22;19918;-87
2021/03/26 08:40:54;;;;;;;;;;;14.00;99.90;;;;;;13183798;22;20347;-87
2021/03/26 08:45:55;;;;;;;;;;;14.20;99.90;;;;;;13182496;22;20224;-87
2021/03/26 08:51:35;;;;;;;;;;;15.00;99.90;;;;;;13182778;22;19928;-86
2021/03/26 08:56:36;;;;;;;;;;;14.50;99.90;;;;;;12831284;23;19951;-86
2021/03/26 09:01:45;;;;;;;;;;;15.40;99.90;;;;;;13083370;22;19989;-87
2021/03/26 09:07:00;;;;;;;;;;;15.50;99.90;;;;;;13155002;22;19918;-86
2021/03/26 09:12:18;;;;;;;;;;;14.40;99.90;;;;;;13154777;22;19926;-87
2021/03/26 09:17:19;;;;;;;;;;;14.50;99.90;;;;;;13181441;22;20005;-87
2021/03/26 09:22:33;;;;;;;;;;;14.50;99.90;;;;;;13154081;22;19922;-87
2021/03/26 09:27:36;;;;;;;;;;;14.30;99.90;;;;;;13181840;22;19918;-86
2021/03/26 09:32:44;;;;;;;;;;;14.80;99.90;;;;;;13154135;22;19946;-86
2021/03/26 09:37:55;;;;;;;;;;;15.70;98.60;;;;;;13154175;22;19922;-86
2021/03/26 09:43:02;;;;;;;;;;;14.80;99.30;;;;;;13153884;22;19985;-87
2021/03/26 09:48:15;;;;;;;;;;;15.60;98.60;;;;;;13153951;22;19922;-87
2021/03/26 09:53:18;;;;;;;;;;;16.90;93.40;;;;;;13180487;22;20323;-86
2021/03/26 09:58:38;;;;;;;;;;;16.10;88.10;;;;;;13181490;22;19918;-87
2021/03/26 10:03:58;;;;;;;;;;;16.20;88.70;;;;;;13152552;22;20263;-86
2021/03/26 10:14:32;;;;;;;;;;;15.30;90.40;;;;;;13181137;22;19975;-86
2021/03/26 10:19:36;;;;;;;;;;;15.20;93.00;;;;;;13180051;22;19990;-87
2021/03/26 10:24:43;;;;;;;;;;;15.10;90.90;;;;;;13154009;22;19961;-87
2021/03/26 10:29:48;;;;;;;;;;;14.90;93.40;;;;;;13153344;22;19918;-87
2021/03/26 10:34:51;;;;;;;;;;;14.60;95.20;;;;;;13180742;22;19993;-87
2021/03/26 10:40:07;;;;;;;;;;;14.30;95.10;;;;;;13152485;22;20341;-86
2021/03/26 10:45:25;;;;;;;;;;;14.40;94.00;;;;;;13157043;22;19919;-87
2021/03/26 10:50:36;;;;;;;;;;;14.30;94.40;;;;;;13154466;22;19922;-86
2021/03/26 10:55:43;;;;;;;;;;;14.00;94.60;;;;;;13152275;22;20307;-87
2021/03/26 11:00:45;;;;;;;;;;;14.80;93.80;;;;;;13179892;22;20315;-86
2021/03/26 11:05:58;;;;;;;;;;;14.90;90.40;;;;;;13156307;22;19918;-86
2021/03/26 11:11:09;;;;;;;;;;;14.40;89.00;;;;;;13184028;22;19918;-86
2021/03/26 11:16:20;;;;;;;;;;;14.50;91.40;;;;;;13184502;22;19992;-87
2021/03/26 11:21:22;;;;;;;;;;;14.80;89.80;;;;;;13184881;22;19975;-86
2021/03/26 11:26:31;;;;;;;;;;;15.00;80.30;;;;;;13183669;22;20298;-86
2021/03/26 11:31:35;;;;;;;;;;;15.00;83.90;;;;;;13156088;22;20232;-87
2021/03/26 11:36:49;;;;;;;;;;;15.00;81.20;;;;;;13156440;22;19922;-87
2021/03/26 11:42:05;;;;;;;;;;;15.30;81.70;;;;;;13155825;22;20230;-87
2021/03/26 11:47:30;;;;;;;;;;;15.60;78.00;;;;;;13184379;22;20000;-87
2021/03/26 11:52:40;;;;;;;;;;;15.40;79.70;;;;;;13155852;22;19972;-88
2021/03/26 11:57:45;;;;;;;;;;;16.20;78.40;;;;;;13156357;22;19957;-87
2021/03/26 12:08:04;;;;;;;;;;;16.10;74.30;;;;;;12925688;23;19994;-87
2021/03/26 12:13:05;;;;;;;;;;;15.70;74.50;;;;;;12923798;23;19995;-86
2021/03/26 12:18:15;;;;;;;;;;;16.60;71.40;;;;;;12926158;23;19920;-87
2021/03/26 12:23:22;;;;;;;;;;;16.90;70.80;;;;;;12926114;23;19930;-87
2021/03/26 12:28:33;;;;;;;;;;;16.80;73.30;;;;;;12923592;23;20282;-87
2021/03/26 12:33:41;;;;;;;;;;;16.30;70.60;;;;;;12924774;23;19920;-87
2021/03/26 12:38:46;;;;;;;;;;;15.90;73.60;;;;;;12924351;23;19923;-87
2021/03/26 12:43:53;;;;;;;;;;;16.70;73.60;;;;;;12925615;23;19955;-86
2021/03/26 12:49:00;;;;;;;;;;;17.00;69.80;;;;;;12924841;23;19926;-87
2021/03/26 12:54:19;;;;;;;;;;;16.70;68.50;;;;;;12923764;23;20026;-87
2021/03/26 12:59:23;;;;;;;;;;;16.50;73.70;;;;;;12923039;23;19955;-87
2021/03/26 13:04:44;;;;;;;;;;;16.90;65.00;;;;;;12897867;23;19930;-87
2021/03/26 13:10:05;;;;;;;;;;;16.70;67.20;;;;;;12923804;23;19942;-87
2021/03/26 13:15:22;;;;;;;;;;;16.30;66.90;;;;;;12922718;23;20002;-87
2021/03/26 13:20:24;;;;;;;;;;;17.00;64.90;;;;;;12925391;23;19920;-87
2021/03/26 13:25:25;;;;;;;;;;;16.80;64.80;;;;;;12921982;23;19946;-86
2021/03/26 13:30:26;;;;;;;;;;;16.10;69.30;;;;;;12924659;23;19954;-87
2021/03/26 13:35:27;;;;;;;;;;;17.10;67.10;;;;;;12897056;23;20337;-87
2021/03/26 13:40:30;;;;;;;;;;;16.60;65.90;;;;;;12898241;23;19947;-87
2021/03/26 13:45:32;;;;;;;;;;;16.20;63.50;;;;;;12924039;23;19928;-86
2021/03/26 13:50:36;;;;;;;;;;;16.40;66.60;;;;;;12889585;23;19947;-87
2021/03/26 13:55:39;;;;;;;;;;;16.60;64.90;;;;;;12890881;23;19998;-87
2021/03/26 14:00:44;;;;;;;;;;;16.30;63.40;;;;;;12924380;23;19943;-87
2021/03/26 14:05:46;;;;;;;;;;;15.80;67.20;;;;;;12923353;23;20253;-87
2021/03/26 14:10:50;;;;;;;;;;;15.40;72.10;;;;;;12923591;23;19928;-87
2021/03/26 14:16:10;;;;;;;;;;;15.00;68.00;;;;;;12922928;23;20399;-87
2021/03/26 14:21:30;;;;;;;;;;;15.40;71.20;;;;;;12896853;23;19991;-86
2021/03/26 14:26:38;;;;;;;;;;;15.90;66.60;;;;;;12922210;23;19955;-87
2021/03/26 14:31:49;;;;;;;;;;;15.30;67.60;;;;;;12923583;23;20002;-87
2021/03/26 14:37:00;;;;;;;;;;;15.30;67.40;;;;;;12923244;23;20030;-87
2021/03/26 14:42:02;;;;;;;;;;;15.90;64.90;;;;;;12922831;23;19954;-87
2021/03/26 14:47:09;;;;;;;;;;;15.70;64.80;;;;;;12921859;23;20002;-87
2021/03/26 14:52:29;;;;;;;;;;;16.10;67.40;;;;;;12896598;23;19927;-87
2021/03/26 14:57:42;;;;;;;;;;;15.60;65.50;;;;;;12921358;23;19919;-86
2021/03/26 15:02:46;;;;;;;;;;;15.00;67.50;;;;;;12896761;23;19954;-87
2021/03/26 15:07:49;;;;;;;;;;;15.20;65.00;;;;;;12922081;23;20253;-87
2021/03/26 15:13:34;;;;;;;;;;;15.70;67.40;;;;;;12922273;23;20319;-87
2021/03/26 15:18:54;;;;;;;;;;;15.60;63.50;;;;;;12917404;23;19991;-86
2021/03/26 15:24:06;;;;;;;;;;;15.70;65.70;;;;;;12921438;23;19947;-87
2021/03/26 15:29:11;;;;;;;;;;;15.40;65.40;;;;;;12920423;23;20240;-87
2021/03/26 15:34:18;;;;;;;;;;;14.90;66.90;;;;;;12896081;23;20002;-87
2021/03/26 15:39:41;;;;;;;;;;;14.20;69.90;;;;;;12921954;23;19924;-87
2021/03/26 15:44:50;;;;;;;;;;;14.10;71.00;;;;;;12922428;23;20387;-87
2021/03/26 15:50:05;;;;;;;;;;;14.10;73.00;;;;;;12923221;23;19947;-87
2021/03/26 15:55:06;;;;;;;;;;;14.30;72.80;;;;;;12899043;23;19998;-87
2021/03/26 16:00:23;;;;;;;;;;;14.20;71.80;;;;;;12899024;23;20383;-87
2021/03/26 16:05:27;;;;;;;;;;;14.30;71.70;;;;;;12925525;23;20374;-87
2021/03/26 16:10:29;;;;;;;;;;;13.80;73.50;;;;;;12899110;23;19995;-86
2021/03/26 16:15:33;;;;;;;;;;;13.80;74.30;;;;;;12925424;23;20244;-86
2021/03/26 16:20:53;;;;;;;;;;;13.70;77.50;;;;;;12924994;23;19982;-87
2021/03/26 16:26:00;;;;;;;;;;;13.50;76.50;;;;;;12925225;23;19987;-86
2021/03/26 16:31:11;;;;;;;;;;;13.40;75.50;;;;;;12899415;23;19950;-86
2021/03/26 16:36:31;;;;;;;;;;;13.50;75.10;;;;;;12924382;23;19923;-86
2021/03/26 16:41:32;;;;;;;;;;;13.40;75.50;;;;;;12924189;23;19999;-86
2021/03/26 16:46:33;;;;;;;;;;;13.30;74.30;;;;;;12925623;23;19919;-86
2021/03/26 16:51:42;;;;;;;;;;;13.10;76.00;;;;;;12925371;23;20014;-86
2021/03/26 16:56:49;;;;;;;;;;;12.90;77.20;;;;;;12924421;23;19926;-86
2021/03/26 17:01:51;;;;;;;;;;;12.70;78.50;;;;;;12898479;23;19958;-86
2021/03/26 17:06:55;;;;;;;;;;;12.60;80.00;;;;;;12924370;23;19924;-87
2021/03/26 17:12:15;;;;;;;;;;;12.50;80.50;;;;;;12924999;23;19926;-86
2021/03/26 17:17:35;;;;;;;;;;;12.40;81.70;;;;;;12924694;23;19919;-87
2021/03/26 17:22:54;;;;;;;;;;;12.30;83.10;;;;;;12922741;23;19943;-87
2021/03/26 17:28:06;;;;;;;;;;;12.20;83.50;;;;;;12923937;23;20375;-87
2021/03/26 17:33:18;;;;;;;;;;;12.00;88.00;;;;;;12898403;23;19923;-87
2021/03/26 17:38:30;;;;;;;;;;;11.90;88.10;;;;;;12927219;23;19919;-87
2021/03/26 17:43:50;;;;;;;;;;;11.90;90.10;;;;;;12926153;23;20003;-86
2021/03/26 17:48:54;;;;;;;;;;;11.80;89.60;;;;;;12923891;23;19978;-86
2021/03/26 17:53:58;;;;;;;;;;;11.80;89.80;;;;;;12923515;23;19920;-86
2021/03/26 17:59:02;;;;;;;;;;;11.70;91.10;;;;;;12924130;23;19919;-86
2021/03/26 18:04:04;;;;;;;;;;;11.30;92.60;;;;;;12985128;22;19918;-86
2021/03/26 18:09:11;;;;;;;;;;;11.30;93.30;;;;;;13183219;22;19948;-86
2021/03/26 18:14:31;;;;;;;;;;;11.30;93.00;;;;;;13154415;22;19918;-86
2021/03/26 18:19:42;;;;;;;;;;;11.10;94.40;;;;;;13153827;22;19993;-86
2021/03/26 18:25:02;;;;;;;;;;;10.90;95.10;;;;;;13152408;22;19918;-86
2021/03/26 18:30:03;;;;;;;;;;;10.90;95.20;;;;;;13151199;22;19979;-83
2021/03/26 18:35:24;;;;;;;;;;;11.20;93.90;;;;;;13180012;22;20001;-83
2021/03/26 18:40:45;;;;;;;;;;;10.90;95.50;;;;;;13179856;22;19922;-83
2021/03/26 18:46:10;;;;;;;;;;;10.90;95.50;;;;;;13153005;22;20258;-83
2021/03/26 18:51:16;;;;;;;;;;;10.50;97.80;;;;;;13154261;22;19949;-83
2021/03/26 18:56:30;;;;;;;;;;;10.50;97.50;;;;;;13152497;22;20238;-83
2021/03/26 19:01:50;;;;;;;;;;;10.50;98.00;;;;;;13145388;22;19922;-83
2021/03/26 19:06:54;;;;;;;;;;;10.40;98.50;;;;;;13144025;22;19987;-84
2021/03/26 19:11:55;;;;;;;;;;;10.30;98.70;;;;;;13172723;22;19930;-84
2021/03/26 19:17:13;;;;;;;;;;;10.20;99.80;;;;;;13144334;22;19954;-84
2021/03/26 19:22:28;;;;;;;;;;;10.10;99.90;;;;;;13144823;22;19918;-84
2021/03/26 19:27:38;;;;;;;;;;;10.00;99.90;;;;;;13175490;22;19922;-83
2021/03/26 19:33:09;;;;;;;;;;;9.90;99.90;;;;;;13147799;22;20244;-83
2021/03/26 19:38:16;;;;;;;;;;;9.90;99.90;;;;;;13142468;22;19954;-84
2021/03/26 19:43:32;;;;;;;;;;;9.80;99.90;;;;;;13177046;22;19922;-84
2021/03/26 19:48:57;;;;;;;;;;;9.90;99.90;;;;;;13148307;22;19997;-84
2021/03/26 19:54:04;;;;;;;;;;;9.80;99.90;;;;;;13103074;22;20319;-84
2021/03/26 19:59:08;;;;;;;;;;;9.70;99.90;;;;;;13148304;22;19922;-84
2021/03/26 20:04:09;;;;;;;;;;;10.00;99.90;;;;;;13147210;22;19928;-84
2021/03/26 20:09:17;;;;;;;;;;;10.10;99.90;;;;;;13176159;22;19950;-84
2021/03/26 20:14:25;;;;;;;;;;;10.20;99.90;;;;;;13146771;22;19953;-87
2021/03/26 20:19:33;;;;;;;;;;;10.30;99.90;;;;;;13146573;22;20326;-87
2021/03/26 20:24:38;;;;;;;;;;;10.30;99.90;;;;;;13147355;22;19993;-87
2021/03/26 20:29:43;;;;;;;;;;;10.20;99.90;;;;;;13175640;22;19975;-87
2021/03/26 20:34:52;;;;;;;;;;;10.10;99.90;;;;;;13147033;22;20001;-88
2021/03/26 20:39:53;;;;;;;;;;;10.20;99.90;;;;;;13175538;22;19954;-85
2021/03/26 20:45:06;;;;;;;;;;;9.80;99.90;;;;;;13150767;22;20307;-85
2021/03/26 20:50:11;;;;;;;;;;;9.90;99.90;;;;;;13147016;22;19918;-85
2021/03/26 20:55:12;;;;;;;;;;;10.10;99.90;;;;;;13148114;22;20006;-85
2021/03/26 21:00:16;;;;;;;;;;;10.30;99.90;;;;;;13148314;22;19922;-85
2021/03/26 21:05:26;;;;;;;;;;;10.20;99.90;;;;;;13175048;22;20380;-85
2021/03/26 21:10:33;;;;;;;;;;;10.10;99.90;;;;;;13146345;22;19946;-85
2021/03/26 21:15:35;;;;;;;;;;;10.80;99.30;;;;;;13173923;22;20339;-85
2021/03/26 21:20:41;;;;;;;;;;;10.80;99.50;;;;;;13147680;22;19997;-85
2021/03/26 21:25:42;;;;;;;;;;;10.70;99.90;;;;;;13145821;22;19919;-85
2021/03/26 21:30:54;;;;;;;;;;;10.90;99.30;;;;;;13146111;22;20406;-85
2021/03/26 21:36:05;;;;;;;;;;;10.80;99.90;;;;;;13146221;22;20364;-85
2021/03/26 21:41:19;;;;;;;;;;;11.00;99.60;;;;;;13147274;22;19922;-84
2021/03/26 21:46:29;;;;;;;;;;;11.00;99.70;;;;;;13173972;22;19994;-85
2021/03/26 21:51:33;;;;;;;;;;;11.10;99.80;;;;;;13175118;22;19997;-85
2021/03/26 21:56:52;;;;;;;;;;;11.00;99.80;;;;;;13145477;22;19918;-85
2021/03/26 22:02:07;;;;;;;;;;;11.10;99.80;;;;;;13145870;22;20329;-85
2021/03/26 22:07:32;;;;;;;;;;;11.10;99.80;;;;;;13145179;22;20251;-86
2021/03/26 22:12:52;;;;;;;;;;;10.70;99.90;;;;;;13154321;22;19961;-86
2021/03/26 22:18:04;;;;;;;;;;;10.10;99.90;;;;;;13171688;22;19949;-85
2021/03/26 22:23:32;;;;;;;;;;;9.60;99.90;;;;;;13171216;22;19922;-86
2021/03/26 22:28:41;;;;;;;;;;;9.20;99.90;;;;;;13171480;22;19922;-86
2021/03/26 22:33:46;;;;;;;;;;;9.10;99.90;;;;;;13175800;22;19925;-85
2021/03/26 22:38:53;;;;;;;;;;;8.90;99.90;;;;;;13178947;22;19985;-85
2021/03/26 22:44:09;;;;;;;;;;;8.60;99.90;;;;;;13179023;22;19964;-86
2021/03/26 22:49:16;;;;;;;;;;;8.40;99.90;;;;;;13178333;22;19918;-85
2021/03/26 22:54:21;;;;;;;;;;;8.20;99.90;;;;;;13179147;22;19999;-86
2021/03/26 22:59:22;;;;;;;;;;;7.90;99.90;;;;;;13190026;22;19997;-84
2021/03/26 23:04:35;;;;;;;;;;;7.70;99.90;;;;;;13182982;22;19918;-86
2021/03/26 23:09:42;;;;;;;;;;;7.50;99.90;;;;;;13185181;22;19929;-86
2021/03/26 23:14:45;;;;;;;;;;;7.40;99.90;;;;;;13182357;22;19925;-86
2021/03/26 23:19:49;;;;;;;;;;;8.70;99.90;;;;;;13183455;22;19943;-86
2021/03/26 23:24:50;;;;;;;;;;;7.00;99.90;;;;;;13182432;22;20301;-85
2021/03/26 23:30:07;;;;;;;;;;;8.20;99.90;;;;;;13183854;22;19918;-86
2021/03/26 23:35:15;;;;;;;;;;;6.80;99.90;;;;;;13182010;22;20017;-85
2021/03/26 23:40:23;;;;;;;;;;;6.60;99.90;;;;;;13184242;22;19918;-85
2021/03/26 23:45:27;;;;;;;;;;;6.50;99.90;;;;;;13183696;22;19949;-85
2021/03/26 23:50:31;;;;;;;;;;;8.10;99.90;;;;;;13182620;22;19922;-85
2021/03/26 23:55:34;;;;;;;;;;;6.30;99.90;;;;;;13183310;22;20224;-85
